VTUI

Details ICAO VTUI (SNO)
Name Sakon Nakhon Aero
Region Thailand
Timezone Asia/Bangkok (UTC+7.0)
Plans Departing 4
Arriving 8
Stats Elevation 529 ft / 161 m (AMSL)
Location 17.195140° 104.118626°
Runways 1
Magnetic Variation 0.947° W
Sunrise 2017-12-11 23:25:02 UTC / 2017-12-12 06:25:02 Local
Sunset 2017-12-12 10:32:05 UTC / 2017-12-12 17:32:05 Local
Advertisement - Login to hide

Runways

ID Width Length Bearing (true) Bearing (mag) Surface Threshold Offset Overrun Length
05 148 ft / 45 m 8,561 ft / 2,609 m 44.83° 45.78° Asphalt 0 ft / 0 m 492 ft / 150 m
23 148 ft / 45 m 8,561 ft / 2,609 m 224.84° 225.79° Asphalt 0 ft / 0 m 492 ft / 150 m

Approach Navaids

Runway Type Ident Frequency Range Bearing (true) Bearing (mag) Slope Elevation
23 Localiser ISKN 110.30 MHz 18 nm / 33 km 224.83° 225.78° - 529 ft / 161 m (AMSL)
23 Glidescope ISKN 110.30 MHz 10 nm / 19 km 224.83° 225.78° 3.00° 526 ft / 160 m (AMSL)
23 DME ISKN 110.30 MHz 18 nm / 33 km - - - 527 ft / 161 m (AMSL)

Map

Weather


0- 5 10 15 20 25 30 35+ Temperature / ° C

Clouds and Precipitation
Forecast for 2017-12-12 18:00 UTC. Updated an hour ago

Ground ~20,000 ft ~40,000 ft Winds

METAR

Not found

TAF

TAF VTUI 121100Z 1212/1312 10005KT 8000 SCT035 BECMG 1222/1224 5000 BR BECMG 1301/1303 9999 NSW

Frequencies

Tower 119.65 MHz TWR
Approach 123.35 MHz APP
Warning: Do not use this data for real-world aviation or navigation. No guarantee of current accuracy is given.